createdAt,value
2022-10-31T00:00:28.219Z,98887.09
2022-10-31T00:01:34.136Z,98885.22
2022-10-31T00:02:35.557Z,98875.69
2022-10-31T00:03:36.903Z,98883.66
2022-10-31T00:04:38.250Z,98877.56
2022-10-31T00:05:43.298Z,98884.63
2022-10-31T00:06:44.623Z,98883.72
2022-10-31T00:07:45.914Z,98885.28
2022-10-31T00:08:47.874Z,98882.63
2022-10-31T00:09:49.177Z,98876.69
2022-10-31T00:10:50.495Z,98882.19
2022-10-31T00:11:51.829Z,98881.72
2022-10-31T00:12:53.138Z,98882.50
2022-10-31T00:13:54.441Z,98884.06
2022-10-31T00:14:55.806Z,98888.28
2022-10-31T00:16:00.088Z,98885.94
2022-10-31T00:17:01.363Z,98891.25
2022-10-31T00:18:06.150Z,98889.06
2022-10-31T00:19:09.148Z,98886.91
2022-10-31T00:20:10.486Z,98884.72
2022-10-31T00:21:11.801Z,98881.72
2022-10-31T00:22:13.137Z,98891.31
2022-10-31T00:23:14.442Z,98891.00
2022-10-31T00:24:15.936Z,98884.88
2022-10-31T00:25:19.910Z,98895.84
2022-10-31T00:26:21.474Z,98892.69
2022-10-31T00:27:22.886Z,98894.56
2022-10-31T00:28:24.196Z,98889.06
2022-10-31T00:29:25.486Z,98887.81
2022-10-31T00:30:27.007Z,98889.69
2022-10-31T00:31:28.900Z,98887.31
2022-10-31T00:32:30.245Z,98894.81
2022-10-31T00:33:33.666Z,98890.28
2022-10-31T00:34:34.974Z,98888.41
2022-10-31T00:35:36.285Z,98882.00
2022-10-31T00:36:37.578Z,98884.66
2022-10-31T00:37:38.887Z,98883.88
2022-10-31T00:38:42.574Z,98886.25
2022-10-31T00:39:46.629Z,98885.94
2022-10-31T00:40:47.972Z,98886.72
2022-10-31T00:41:49.293Z,98884.72
2022-10-31T00:42:50.699Z,98892.69
2022-10-31T00:43:52.049Z,98890.34
2022-10-31T00:44:53.365Z,98889.06
2022-10-31T00:45:55.526Z,98889.56
2022-10-31T00:46:59.491Z,98887.03
2022-10-31T00:48:01.156Z,98889.69
2022-10-31T00:49:02.755Z,98886.25
2022-10-31T00:50:08.342Z,98891.56
2022-10-31T00:51:09.656Z,98887.63
2022-10-31T00:52:10.974Z,98889.19
2022-10-31T00:53:12.386Z,98879.66
2022-10-31T00:54:13.705Z,98881.53
2022-10-31T00:55:15.036Z,98883.41
2022-10-31T00:56:16.736Z,98885.44
2022-10-31T00:57:18.048Z,98879.34
2022-10-31T00:58:19.489Z,98879.06
2022-10-31T00:59:20.842Z,98880.94
2022-10-31T01:00:22.364Z,98885.75
2022-10-31T01:01:23.931Z,98886.84
2022-10-31T01:02:25.526Z,98884.19
2022-10-31T01:03:28.379Z,98884.97
2022-10-31T01:04:29.692Z,98879.66
2022-10-31T01:05:32.287Z,98884.19
2022-10-31T01:06:33.623Z,98875.44
2022-10-31T01:07:38.832Z,98876.53
2022-10-31T01:08:43.247Z,98881.06
2022-10-31T01:09:50.352Z,98871.47
2022-10-31T01:11:11.990Z,98873.22
2022-10-31T01:12:14.954Z,98877.16
2022-10-31T01:13:16.437Z,98878.72
2022-10-31T01:14:19.974Z,98877.47
2022-10-31T01:15:22.491Z,98876.69
2022-10-31T01:16:27.536Z,98877.00
2022-10-31T01:17:28.893Z,98886.84
2022-10-31T01:18:30.210Z,98882.78
2022-10-31T01:19:31.584Z,98878.88
2022-10-31T01:20:32.877Z,98882.63
2022-10-31T01:21:35.946Z,98878.09
2022-10-31T01:22:37.334Z,98879.66
2022-10-31T01:23:38.790Z,98873.84
2022-10-31T01:24:44.891Z,98879.66
2022-10-31T01:25:46.194Z,98878.09
2022-10-31T01:26:47.555Z,98878.09
2022-10-31T01:27:48.849Z,98884.78
2022-10-31T01:28:58.344Z,98877.13
2022-10-31T01:29:59.646Z,98884.66
2022-10-31T01:31:01.572Z,98884.66
2022-10-31T01:32:02.927Z,98884.38
2022-10-31T01:33:04.244Z,98878.88
2022-10-31T01:34:06.030Z,98877.31
2022-10-31T01:35:07.469Z,98876.22
2022-10-31T01:36:12.812Z,98882.00
2022-10-31T01:37:14.130Z,98876.69
2022-10-31T01:38:15.439Z,98879.97
2022-10-31T01:39:16.741Z,98876.53
2022-10-31T01:40:18.280Z,98873.34
2022-10-31T01:41:21.735Z,98871.47
2022-10-31T01:42:26.549Z,98874.47
2022-10-31T01:43:42.634Z,98872.25
2022-10-31T01:44:43.922Z,98874.16
2022-10-31T01:45:48.894Z,98871.97
2022-10-31T01:47:01.700Z,98871.78
2022-10-31T01:48:03.178Z,98871.47
2022-10-31T01:49:06.362Z,98868.81
2022-10-31T01:50:13.389Z,98873.06
2022-10-31T01:51:16.630Z,98872.25
2022-10-31T01:52:24.197Z,98867.25
2022-10-31T01:53:26.967Z,98869.31
2022-10-31T01:54:31.946Z,98871.19
2022-10-31T01:55:35.300Z,98870.56
2022-10-31T01:56:42.383Z,98871.66
2022-10-31T01:57:46.022Z,98871.34
2022-10-31T01:58:47.349Z,98867.91
2022-10-31T01:59:54.832Z,98865.44
2022-10-31T02:01:00.528Z,98871.53
2022-10-31T02:02:04.819Z,98868.75
2022-10-31T02:03:06.207Z,98861.88
2022-10-31T02:04:08.462Z,98865.91
2022-10-31T02:05:11.549Z,98866.53
2022-10-31T02:06:19.990Z,98870.28
2022-10-31T02:07:27.211Z,98869.78
2022-10-31T02:08:32.168Z,98860.72
2022-10-31T02:09:35.170Z,98869.19
2022-10-31T02:10:37.692Z,98866.81
2022-10-31T02:11:39.671Z,98864.97
2022-10-31T02:12:41.947Z,98865.25
2022-10-31T02:13:43.233Z,98862.91
2022-10-31T02:14:44.928Z,98864.00
2022-10-31T02:15:47.827Z,98868.22
2022-10-31T02:16:49.172Z,98868.22
2022-10-31T02:17:50.582Z,98857.28
2022-10-31T02:18:55.056Z,98866.81
2022-10-31T02:20:02.435Z,98869.78
2022-10-31T02:21:12.318Z,98867.44
2022-10-31T02:22:21.995Z,98872.25
2022-10-31T02:23:34.667Z,98865.09
2022-10-31T02:24:47.223Z,98871.47
2022-10-31T02:25:57.771Z,98867.56
2022-10-31T02:27:07.938Z,98867.84
2022-10-31T02:28:27.587Z,98864.41
2022-10-31T02:29:40.788Z,98865.50
2022-10-31T02:30:52.501Z,98865.81
2022-10-31T02:32:15.359Z,98874.59
2022-10-31T02:33:28.641Z,98861.59
2022-10-31T02:34:34.253Z,98868.00
2022-10-31T02:35:35.598Z,98868.31
2022-10-31T02:36:59.725Z,98865.31
2022-10-31T02:38:20.322Z,98864.25
2022-10-31T02:39:26.293Z,98865.31
2022-10-31T02:40:30.176Z,98866.59
2022-10-31T02:42:00.333Z,98869.09
2022-10-31T02:43:10.573Z,98869.72
2022-10-31T02:44:14.789Z,98866.75
2022-10-31T02:45:22.246Z,98868.13
2022-10-31T02:46:36.818Z,98865.63
2022-10-31T02:47:42.532Z,98865.00
2022-10-31T02:48:45.326Z,98870.31
2022-10-31T02:49:49.816Z,98870.44
2022-10-31T02:50:57.123Z,98870.25
2022-10-31T02:51:59.143Z,98863.84
2022-10-31T02:53:01.599Z,98868.69
2022-10-31T02:54:02.978Z,98864.44
2022-10-31T02:55:33.024Z,98868.50
2022-10-31T02:56:36.645Z,98864.84
2022-10-31T02:57:42.547Z,98850.91
2022-10-31T02:58:50.852Z,98860.34
2022-10-31T02:59:59.508Z,98863.28
2022-10-31T03:01:06.528Z,98863.59
2022-10-31T03:02:19.648Z,98869.03
2022-10-31T03:03:29.001Z,98867.47
2022-10-31T03:04:39.053Z,98858.53
2022-10-31T03:05:54.944Z,98858.81
2022-10-31T03:06:58.171Z,98852.44
2022-10-31T03:08:18.598Z,98851.94
2022-10-31T03:09:45.066Z,98863.66
2022-10-31T03:10:57.732Z,98859.44
2022-10-31T03:12:19.989Z,98860.53
2022-10-31T03:13:21.366Z,98855.78
2022-10-31T03:14:42.015Z,98858.75
2022-10-31T03:15:52.861Z,98856.69
2022-10-31T03:16:56.141Z,98868.41
2022-10-31T03:18:16.549Z,98860.72
2022-10-31T03:19:17.863Z,98862.00
2022-10-31T03:20:21.506Z,98858.88
2022-10-31T03:21:28.161Z,98850.38
2022-10-31T03:22:31.967Z,98854.91
2022-10-31T03:23:36.373Z,98852.84
2022-10-31T03:24:39.349Z,98848.63
2022-10-31T03:25:41.344Z,98848.63
2022-10-31T03:26:50.462Z,98849.72
2022-10-31T03:27:52.322Z,98854.25
2022-10-31T03:29:03.862Z,98867.53
2022-10-31T03:30:06.484Z,98865.66
2022-10-31T03:31:18.390Z,98867.84
2022-10-31T03:32:31.249Z,98868.63
2022-10-31T03:33:35.063Z,98872.66
2022-10-31T03:34:38.566Z,98873.28
2022-10-31T03:35:42.197Z,98872.28
2022-10-31T03:36:44.717Z,98871.78
2022-10-31T03:37:47.328Z,98868.66
2022-10-31T03:38:51.022Z,98876.94
2022-10-31T03:39:55.321Z,98871.13
2022-10-31T03:40:59.754Z,98868.78
2022-10-31T03:42:05.603Z,98869.06
2022-10-31T03:43:09.883Z,98869.34
2022-10-31T03:44:14.574Z,98870.44
2022-10-31T03:45:20.531Z,98874.50
2022-10-31T03:46:22.443Z,98872.63
2022-10-31T03:47:24.954Z,98871.84
2022-10-31T03:48:26.942Z,98877.44
2022-10-31T03:49:28.458Z,98868.22
2022-10-31T03:50:39.832Z,98876.44
2022-10-31T03:51:47.483Z,98879.41
2022-10-31T03:52:51.115Z,98865.81
2022-10-31T03:53:55.964Z,98869.88
2022-10-31T03:54:59.734Z,98870.66
2022-10-31T03:56:10.905Z,98874.41
2022-10-31T03:57:15.242Z,98869.09
2022-10-31T03:58:30.058Z,98868.59
2022-10-31T03:59:34.103Z,98875.00
2022-10-31T04:00:39.797Z,98873.72
2022-10-31T04:01:44.389Z,98876.38
2022-10-31T04:02:54.669Z,98876.38
2022-10-31T04:03:57.018Z,98870.00
2022-10-31T04:04:58.937Z,98875.28
2022-10-31T04:06:03.944Z,98869.19
2022-10-31T04:07:07.398Z,98861.53
2022-10-31T04:08:13.225Z,98859.94
2022-10-31T04:09:15.635Z,98860.72
2022-10-31T04:10:17.831Z,98864.00
2022-10-31T04:11:20.677Z,98859.28
2022-10-31T04:12:30.478Z,98857.91
2022-10-31T04:13:54.454Z,98867.25
2022-10-31T04:14:58.189Z,98863.03
2022-10-31T04:15:59.688Z,98863.31
2022-10-31T04:17:03.014Z,98860.94
2022-10-31T04:18:10.212Z,98862.34
2022-10-31T04:19:12.778Z,98866.25
2022-10-31T04:20:16.884Z,98865.16
2022-10-31T04:21:18.243Z,98858.59
2022-10-31T04:22:19.538Z,98856.72
2022-10-31T04:23:23.402Z,98851.72
2022-10-31T04:24:25.673Z,98851.53
2022-10-31T04:25:27.227Z,98856.34
2022-10-31T04:26:29.496Z,98852.09
2022-10-31T04:27:30.850Z,98852.63
2022-10-31T04:28:32.321Z,98856.34
2022-10-31T04:29:34.132Z,98849.97
2022-10-31T04:30:35.454Z,98845.75
2022-10-31T04:31:36.749Z,98848.56
2022-10-31T04:32:38.638Z,98854.19
2022-10-31T04:33:40.518Z,98853.59
2022-10-31T04:34:41.849Z,98854.38
2022-10-31T04:35:43.158Z,98847.00
2022-10-31T04:36:45.482Z,98848.09
2022-10-31T04:37:49.657Z,98842.28
2022-10-31T04:38:51.071Z,98842.28
2022-10-31T04:40:11.683Z,98836.50
2022-10-31T04:41:31.817Z,98833.06
2022-10-31T04:42:36.623Z,98834.03
2022-10-31T04:43:39.507Z,98843.56
2022-10-31T04:44:40.835Z,98839.03
2022-10-31T04:45:43.054Z,98836.38
2022-10-31T04:46:44.693Z,98834.03
2022-10-31T04:47:46.036Z,98834.50
2022-10-31T04:48:47.347Z,98833.25
2022-10-31T04:49:48.862Z,98831.97
2022-10-31T04:50:50.713Z,98831.50
2022-10-31T04:51:52.061Z,98832.53
2022-10-31T04:52:53.643Z,98830.97
2022-10-31T04:53:59.936Z,98833.06
2022-10-31T04:55:33.288Z,98824.50
2022-10-31T04:56:55.334Z,98827.16
2022-10-31T04:57:58.168Z,98820.78
2022-10-31T04:59:01.200Z,98818.59
2022-10-31T05:00:09.261Z,98815.16
2022-10-31T05:01:10.857Z,98822.34
2022-10-31T05:02:12.443Z,98817.81
2022-10-31T05:03:29.059Z,98818.47
2022-10-31T05:04:30.357Z,98818.47
2022-10-31T05:05:32.320Z,98822.69
2022-10-31T05:06:36.018Z,98817.41
2022-10-31T05:07:40.968Z,98819.56
2022-10-31T05:08:42.310Z,98822.22
2022-10-31T05:09:44.954Z,98818.78
2022-10-31T05:10:47.220Z,98815.81
2022-10-31T05:11:48.559Z,98820.34
2022-10-31T05:13:12.589Z,98826.56
2022-10-31T05:14:32.710Z,98821.84
2022-10-31T05:15:59.665Z,98821.34
2022-10-31T05:17:03.665Z,98820.88
2022-10-31T05:18:23.937Z,98810.84
2022-10-31T05:19:28.120Z,98816.16
2022-10-31T05:21:04.969Z,98813.03
2022-10-31T05:22:10.625Z,98810.16
2022-10-31T05:23:12.706Z,98811.53
2022-10-31T05:24:16.115Z,98817.13
2022-10-31T05:25:23.587Z,98814.00
2022-10-31T05:26:25.206Z,98822.44
2022-10-31T05:27:28.410Z,98814.28
2022-10-31T05:28:30.879Z,98815.06
2022-10-31T05:29:32.807Z,98812.25
2022-10-31T05:30:34.606Z,98807.22
2022-10-31T05:31:38.336Z,98815.00
2022-10-31T05:32:43.363Z,98816.88
2022-10-31T05:34:04.695Z,98812.34
2022-10-31T05:35:29.662Z,98810.75
2022-10-31T05:37:03.010Z,98809.69
2022-10-31T05:38:04.352Z,98809.69
2022-10-31T05:39:06.102Z,98804.97
2022-10-31T05:40:19.048Z,98809.78
2022-10-31T05:41:20.358Z,98808.19
2022-10-31T05:42:22.610Z,98810.75
2022-10-31T05:43:24.128Z,98799.47
2022-10-31T05:44:25.456Z,98804.59
2022-10-31T05:45:39.747Z,98805.94
2022-10-31T05:46:47.376Z,98795.66
2022-10-31T05:47:59.348Z,98804.06
2022-10-31T05:49:19.957Z,98799.06
2022-10-31T05:50:39.798Z,98805.16
2022-10-31T05:51:44.488Z,98796.72
2022-10-31T05:52:45.990Z,98804.97
2022-10-31T05:53:56.516Z,98801.53
2022-10-31T05:54:58.092Z,98800.94
2022-10-31T05:55:59.708Z,98800.25
2022-10-31T05:57:01.078Z,98797.88
2022-10-31T05:58:02.707Z,98801.22
2022-10-31T05:59:04.443Z,98800.16
2022-10-31T06:00:06.388Z,98795.13
2022-10-31T06:01:22.514Z,98796.22
2022-10-31T06:02:24.278Z,98799.97
2022-10-31T06:03:43.956Z,98805.56
2022-10-31T06:04:45.369Z,98799.47
2022-10-31T06:05:50.671Z,98808.22
2022-10-31T06:06:57.154Z,98807.72
2022-10-31T06:07:59.208Z,98807.72
2022-10-31T06:09:00.842Z,98812.22
2022-10-31T06:10:05.004Z,98807.50
2022-10-31T06:11:06.393Z,98806.25
2022-10-31T06:12:26.544Z,98806.72
2022-10-31T06:13:54.528Z,98803.59
2022-10-31T06:15:07.698Z,98803.28
2022-10-31T06:16:09.079Z,98804.06
2022-10-31T06:17:12.909Z,98807.13
2022-10-31T06:18:22.982Z,98797.50
2022-10-31T06:19:26.747Z,98797.50
2022-10-31T06:20:28.668Z,98802.50
2022-10-31T06:21:35.450Z,98802.81
2022-10-31T06:22:36.826Z,98798.56
2022-10-31T06:23:38.275Z,98799.56
2022-10-31T06:24:59.861Z,98801.44
2022-10-31T06:26:08.780Z,98800.34
2022-10-31T06:27:10.302Z,98795.34
2022-10-31T06:28:11.791Z,98799.28
2022-10-31T06:29:42.321Z,98799.28
2022-10-31T06:30:47.566Z,98803.97
2022-10-31T06:31:51.640Z,98796.03
2022-10-31T06:32:53.399Z,98794.16
2022-10-31T06:33:55.370Z,98797.59
2022-10-31T06:34:56.787Z,98801.06
2022-10-31T06:36:00.131Z,98798.09
2022-10-31T06:37:02.442Z,98798.09
2022-10-31T06:38:05.761Z,98811.34
2022-10-31T06:39:17.565Z,98804.50
2022-10-31T06:40:20.238Z,98805.28
2022-10-31T06:41:50.889Z,98806.34
2022-10-31T06:42:58.951Z,98803.69
2022-10-31T06:44:04.876Z,98808.19
2022-10-31T06:45:27.991Z,98807.94
2022-10-31T06:46:56.087Z,98802.00
2022-10-31T06:48:26.248Z,98807.03
2022-10-31T06:49:50.861Z,98808.59
2022-10-31T06:50:59.729Z,98812.03
2022-10-31T06:52:01.491Z,98805.38
2022-10-31T06:53:03.284Z,98808.31
2022-10-31T06:54:04.738Z,98810.56
2022-10-31T06:55:06.378Z,98807.91
2022-10-31T06:56:08.686Z,98807.63
2022-10-31T06:57:15.138Z,98808.41
2022-10-31T06:58:19.423Z,98809.97
2022-10-31T06:59:21.942Z,98809.38
2022-10-31T07:00:42.494Z,98808.78
2022-10-31T07:01:44.299Z,98817.53
2022-10-31T07:02:53.482Z,98809.28
2022-10-31T07:03:57.841Z,98820.66
2022-10-31T07:04:59.184Z,98818.81
2022-10-31T07:06:00.517Z,98809.75
2022-10-31T07:07:02.273Z,98816.63
2022-10-31T07:08:06.945Z,98816.34
2022-10-31T07:09:08.259Z,98812.81
2022-10-31T07:10:09.710Z,98820.78
2022-10-31T07:11:31.340Z,98816.25
2022-10-31T07:12:33.330Z,98816.44
2022-10-31T07:13:34.665Z,98819.88
2022-10-31T07:14:40.113Z,98813.78
2022-10-31T07:15:43.348Z,98813.47
2022-10-31T07:16:44.703Z,98814.25
2022-10-31T07:17:49.351Z,98815.81
2022-10-31T07:18:50.718Z,98821.63
2022-10-31T07:19:52.033Z,98816.50
2022-10-31T07:20:53.802Z,98820.63
2022-10-31T07:21:55.606Z,98820.91
2022-10-31T07:22:59.358Z,98819.84
2022-10-31T07:24:00.838Z,98829.84
2022-10-31T07:25:22.534Z,98823.78
2022-10-31T07:26:43.470Z,98823.97
2022-10-31T07:27:45.640Z,98822.66
2022-10-31T07:28:47.823Z,98824.22
2022-10-31T07:29:50.030Z,98825.31
2022-10-31T07:30:52.774Z,98827.19
2022-10-31T07:31:55.525Z,98828.34
2022-10-31T07:33:02.277Z,98824.88
2022-10-31T07:34:42.293Z,98832.06
2022-10-31T07:36:12.297Z,98830.38
2022-10-31T07:37:16.943Z,98825.84
2022-10-31T07:38:18.242Z,98828.22
2022-10-31T07:39:19.583Z,98828.72
2022-10-31T07:40:21.602Z,98828.72
2022-10-31T07:41:23.713Z,98827.03
2022-10-31T07:42:25.073Z,98825.63
2022-10-31T07:43:26.428Z,98829.88
2022-10-31T07:44:56.780Z,98825.03
2022-10-31T07:46:18.023Z,98822.56
2022-10-31T07:47:41.359Z,98826.19
2022-10-31T07:48:43.005Z,98820.56
2022-10-31T07:50:04.450Z,98823.41
2022-10-31T07:51:46.335Z,98820.44
2022-10-31T07:53:14.341Z,98824.09
2022-10-31T07:54:28.365Z,98825.09
2022-10-31T07:55:30.001Z,98820.25
2022-10-31T07:56:33.126Z,98826.03
2022-10-31T07:57:35.034Z,98814.34
2022-10-31T07:58:36.509Z,98828.56
2022-10-31T07:59:38.543Z,98820.31
2022-10-31T08:00:42.694Z,98829.25
2022-10-31T08:01:44.810Z,98827.25
2022-10-31T08:03:06.055Z,98827.41
2022-10-31T08:04:26.326Z,98826.81
2022-10-31T08:05:46.606Z,98824.31
2022-10-31T08:07:03.345Z,98823.41
2022-10-31T08:08:09.854Z,98822.78
2022-10-31T08:09:12.306Z,98828.59
2022-10-31T08:10:14.438Z,98827.19
2022-10-31T08:11:15.970Z,98829.25
2022-10-31T08:12:17.917Z,98820.66
2022-10-31T08:13:19.328Z,98830.69
2022-10-31T08:14:25.108Z,98825.53
2022-10-31T08:15:27.282Z,98820.41
2022-10-31T08:16:28.598Z,98817.91
2022-10-31T08:17:37.526Z,98818.38
2022-10-31T08:18:38.881Z,98827.31
2022-10-31T08:19:43.649Z,98819.50
2022-10-31T08:20:48.085Z,98821.56
2022-10-31T08:21:52.982Z,98825.97
2022-10-31T08:22:55.151Z,98827.22
2022-10-31T08:23:56.490Z,98828.47
2022-10-31T08:24:59.538Z,98820.97
2022-10-31T08:26:01.009Z,98820.03
2022-10-31T08:27:02.355Z,98817.09
2022-10-31T08:28:04.379Z,98811.91
2022-10-31T08:29:05.858Z,98825.38
2022-10-31T08:30:09.388Z,98820.69
2022-10-31T08:31:13.220Z,98818.22
2022-10-31T08:32:14.550Z,98812.28
2022-10-31T08:33:34.484Z,98814.31
2022-10-31T08:34:53.838Z,98813.69
2022-10-31T08:36:13.811Z,98816.03
2022-10-31T08:37:35.384Z,98808.53
2022-10-31T08:38:38.201Z,98814.19
2022-10-31T08:39:43.353Z,98814.03
2022-10-31T08:40:48.925Z,98816.38
2022-10-31T08:41:50.863Z,98813.41
2022-10-31T08:42:59.414Z,98808.88
2022-10-31T08:44:00.998Z,98812.00
2022-10-31T08:45:02.413Z,98811.38
2022-10-31T08:46:05.263Z,98809.66
2022-10-31T08:47:07.046Z,98806.69
2022-10-31T08:48:13.967Z,98803.09
2022-10-31T08:49:15.480Z,98805.16
2022-10-31T08:50:18.419Z,98797.31
2022-10-31T08:51:21.777Z,98795.91
2022-10-31T08:52:51.081Z,98799.03
2022-10-31T08:53:48.365Z,98804.84
2022-10-31T08:55:08.159Z,98798.88
2022-10-31T08:56:32.250Z,98796.69
2022-10-31T08:57:34.730Z,98795.25
2022-10-31T08:58:40.024Z,98795.88
2022-10-31T08:59:42.399Z,98790.41
2022-10-31T09:00:56.475Z,98787.59
2022-10-31T09:01:57.920Z,98788.81
2022-10-31T09:03:01.231Z,98794.31
2022-10-31T09:04:04.971Z,98785.22
2022-10-31T09:05:06.530Z,98787.09
2022-10-31T09:06:09.179Z,98785.38
2022-10-31T09:07:25.838Z,98780.50
2022-10-31T09:08:29.814Z,98782.53
2022-10-31T09:09:31.174Z,98782.22
2022-10-31T09:10:33.800Z,98783.16
2022-10-31T09:11:37.415Z,98783.94
2022-10-31T09:12:59.403Z,98783.94
2022-10-31T09:14:19.425Z,98782.97
2022-10-31T09:15:40.248Z,98793.03
2022-10-31T09:16:52.651Z,98779.84
2022-10-31T09:17:58.088Z,98790.50
2022-10-31T09:19:11.073Z,98791.75
2022-10-31T09:20:12.868Z,98798.34
2022-10-31T09:21:14.229Z,98793.91
2022-10-31T09:22:15.585Z,98789.84
2022-10-31T09:23:18.170Z,98787.34
2022-10-31T09:24:19.557Z,98799.38
2022-10-31T09:25:21.334Z,98784.63
2022-10-31T09:26:29.348Z,98792.78
2022-10-31T09:27:32.735Z,98789.81
2022-10-31T09:28:34.545Z,98790.25
2022-10-31T09:29:41.197Z,98788.19
2022-10-31T09:30:47.072Z,98790.69
2022-10-31T09:31:53.036Z,98788.63
2022-10-31T09:33:06.035Z,98783.59
2022-10-31T09:34:08.578Z,98788.31
2022-10-31T09:36:19.123Z,98786.34
2022-10-31T09:37:20.433Z,98780.72
2022-10-31T09:38:21.879Z,98779.75
2022-10-31T09:39:24.400Z,98778.31
2022-10-31T09:40:38.459Z,98780.03
2022-10-31T09:41:42.881Z,98779.06
2022-10-31T09:42:52.265Z,98775.78
2022-10-31T09:44:00.885Z,98770.13
2022-10-31T09:45:12.008Z,98771.66
2022-10-31T09:46:19.646Z,98769.78
2022-10-31T09:47:49.252Z,98768.03
2022-10-31T09:49:45.947Z,98769.41
2022-10-31T09:50:53.670Z,98766.88
2022-10-31T09:52:16.531Z,98772.69
2022-10-31T09:53:20.714Z,98767.78
2022-10-31T09:54:29.480Z,98769.25
2022-10-31T09:55:36.705Z,98765.56
2022-10-31T09:56:40.753Z,98766.03
2022-10-31T09:57:42.609Z,98772.50
2022-10-31T09:58:55.722Z,98760.84
2022-10-31T09:59:57.462Z,98771.63
2022-10-31T10:01:01.147Z,98767.53
2022-10-31T10:02:02.687Z,98763.41
2022-10-31T10:03:11.069Z,98766.56
2022-10-31T10:04:20.857Z,98762.44
2022-10-31T10:06:19.578Z,98765.69
2022-10-31T10:07:52.936Z,98762.38
2022-10-31T10:09:00.227Z,98765.97
2022-10-31T10:10:24.249Z,98768.78
2022-10-31T10:12:03.589Z,98759.66
2022-10-31T10:13:08.244Z,98771.13
2022-10-31T10:14:13.647Z,98767.31
2022-10-31T10:15:33.711Z,98764.66
2022-10-31T10:16:58.431Z,98770.91
2022-10-31T10:18:19.995Z,98765.38
2022-10-31T10:19:31.716Z,98767.19
2022-10-31T10:20:32.990Z,98759.94
2022-10-31T10:21:34.336Z,98760.09
2022-10-31T10:22:35.651Z,98760.97
2022-10-31T10:23:42.601Z,98765.00
2022-10-31T10:24:53.092Z,98763.25
2022-10-31T10:26:01.521Z,98767.59
2022-10-31T10:27:24.786Z,98764.69
2022-10-31T10:28:36.291Z,98761.66
2022-10-31T10:29:45.417Z,98767.91
2022-10-31T10:30:49.366Z,98757.69
2022-10-31T10:31:52.530Z,98757.78
2022-10-31T10:33:14.920Z,98753.69
2022-10-31T10:34:22.535Z,98755.38
2022-10-31T10:35:30.222Z,98757.38
2022-10-31T10:36:35.807Z,98749.03
2022-10-31T10:37:39.282Z,98752.50
2022-10-31T10:39:06.501Z,98747.38
2022-10-31T10:40:18.855Z,98749.28
2022-10-31T10:41:21.535Z,98732.31
2022-10-31T10:42:22.978Z,98742.22
2022-10-31T10:43:24.301Z,98738.22
2022-10-31T10:44:25.634Z,98742.66
2022-10-31T10:45:27.119Z,98746.09
2022-10-31T10:46:48.218Z,98740.75
2022-10-31T10:47:56.098Z,98748.47
2022-10-31T10:49:15.994Z,98749.34
2022-10-31T10:50:22.007Z,98744.72
2022-10-31T10:51:39.069Z,98744.63
2022-10-31T10:52:50.815Z,98743.84
2022-10-31T10:54:12.526Z,98741.94
2022-10-31T10:55:32.638Z,98735.16
2022-10-31T10:56:39.813Z,98735.38
2022-10-31T10:57:44.086Z,98735.25
2022-10-31T10:58:45.523Z,98733.47
2022-10-31T10:59:47.313Z,98730.94
2022-10-31T11:00:48.740Z,98732.13
2022-10-31T11:01:51.619Z,98731.25
2022-10-31T11:02:53.255Z,98732.94
2022-10-31T11:03:54.545Z,98723.56
2022-10-31T11:04:57.934Z,98727.13
2022-10-31T11:05:59.322Z,98721.44
2022-10-31T11:07:03.543Z,98718.44
2022-10-31T11:08:05.729Z,98719.88
2022-10-31T11:09:10.052Z,98721.53
2022-10-31T11:10:15.000Z,98712.38
2022-10-31T11:11:26.840Z,98717.44
2022-10-31T11:12:30.584Z,98704.47
2022-10-31T11:13:33.470Z,98709.59
2022-10-31T11:14:38.246Z,98705.56
2022-10-31T11:15:54.505Z,98703.34
2022-10-31T11:17:07.529Z,98699.13
2022-10-31T11:18:18.321Z,98702.34
2022-10-31T11:19:26.053Z,98692.41
2022-10-31T11:20:28.729Z,98698.41
2022-10-31T11:21:31.032Z,98687.00
2022-10-31T11:22:32.357Z,98693.25
2022-10-31T11:23:34.100Z,98687.09
2022-10-31T11:24:40.349Z,98683.41
2022-10-31T11:25:48.527Z,98686.19
2022-10-31T11:26:50.747Z,98677.13
2022-10-31T11:28:00.933Z,98675.56
2022-10-31T11:29:02.343Z,98683.38
2022-10-31T11:30:07.253Z,98686.06
2022-10-31T11:31:12.376Z,98676.91
2022-10-31T11:32:21.619Z,98675.41
2022-10-31T11:33:46.994Z,98678.88
2022-10-31T11:34:50.925Z,98679.03
2022-10-31T11:35:56.909Z,98676.34
2022-10-31T11:37:03.800Z,98681.38
2022-10-31T11:38:05.346Z,98677.47
2022-10-31T11:39:14.847Z,98669.78
2022-10-31T11:40:23.263Z,98665.19
2022-10-31T11:41:26.885Z,98665.88
2022-10-31T11:42:46.806Z,98660.97
2022-10-31T11:43:51.111Z,98654.56
2022-10-31T11:44:53.881Z,98666.94
2022-10-31T11:45:55.213Z,98661.69
2022-10-31T11:46:58.189Z,98661.69
2022-10-31T11:48:00.610Z,98658.81
2022-10-31T11:49:02.628Z,98657.84
2022-10-31T11:50:10.586Z,98653.19
2022-10-31T11:51:11.902Z,98648.84
2022-10-31T11:52:13.167Z,98650.00
2022-10-31T11:53:26.112Z,98650.00
2022-10-31T11:54:35.050Z,98646.59
2022-10-31T11:55:40.015Z,98642.13
2022-10-31T11:56:42.285Z,98644.19
2022-10-31T11:57:45.863Z,98636.59
2022-10-31T11:59:15.548Z,98637.56
2022-10-31T12:00:19.716Z,98634.63
2022-10-31T12:01:28.925Z,98640.19
2022-10-31T12:02:30.321Z,98641.03
2022-10-31T12:03:37.548Z,98638.88
2022-10-31T12:04:44.656Z,98638.97
2022-10-31T12:05:48.159Z,98640.94
2022-10-31T12:06:49.710Z,98636.81
2022-10-31T12:07:51.135Z,98637.91
2022-10-31T12:08:52.447Z,98632.66
2022-10-31T12:09:53.840Z,98635.00
2022-10-31T12:11:02.297Z,98636.09
2022-10-31T12:12:12.831Z,98645.47
2022-10-31T12:13:17.102Z,98633.69
2022-10-31T12:14:18.368Z,98639.13
2022-10-31T12:15:31.389Z,98638.88
2022-10-31T12:16:40.464Z,98634.44
2022-10-31T12:19:11.329Z,98637.47
2022-10-31T12:20:31.012Z,98627.22
2022-10-31T12:21:41.825Z,98622.81
2022-10-31T12:22:49.010Z,98622.13
2022-10-31T12:23:50.250Z,98618.31
2022-10-31T12:25:00.139Z,98617.19
2022-10-31T12:26:07.439Z,98615.00
2022-10-31T12:27:11.876Z,98615.88
2022-10-31T12:28:21.962Z,98610.78
2022-10-31T12:29:26.307Z,98612.72
2022-10-31T12:30:30.502Z,98602.91
2022-10-31T12:31:31.793Z,98606.66
2022-10-31T12:32:36.091Z,98607.91
2022-10-31T12:33:50.710Z,98607.16
2022-10-31T12:35:00.756Z,98604.09
2022-10-31T12:36:20.501Z,98596.78
2022-10-31T12:37:21.818Z,98595.28
2022-10-31T12:38:30.677Z,98592.50
2022-10-31T12:39:38.373Z,98591.41
2022-10-31T12:40:54.367Z,98589.50
2022-10-31T12:42:01.409Z,98592.00
2022-10-31T12:43:41.364Z,98583.69
2022-10-31T12:44:45.604Z,98583.34
2022-10-31T12:45:56.892Z,98580.72
2022-10-31T12:47:13.762Z,98579.94
2022-10-31T12:48:24.253Z,98580.72
2022-10-31T12:49:35.171Z,98581.22
2022-10-31T12:50:53.186Z,98573.25
2022-10-31T12:51:57.266Z,98578.97
2022-10-31T12:53:07.675Z,98574.72
2022-10-31T12:54:21.306Z,98574.78
2022-10-31T12:55:25.237Z,98575.16
2022-10-31T12:56:29.081Z,98574.78
2022-10-31T12:57:51.759Z,98569.78
2022-10-31T12:59:10.534Z,98575.22
2022-10-31T13:00:16.252Z,98573.69
2022-10-31T13:01:21.618Z,98572.09
2022-10-31T13:02:32.936Z,98570.56
2022-10-31T13:03:39.952Z,98561.72
2022-10-31T13:04:45.749Z,98563.56
2022-10-31T13:05:49.036Z,98560.44
2022-10-31T13:06:52.032Z,98558.81
2022-10-31T13:07:53.335Z,98547.91
2022-10-31T13:08:56.199Z,98543.34